Time;durP1;ratioP1;P1;durP2;ratioP2;P2;SDS_P1;SDS_P2;PMS_P1;PMS_P2;Temp;Humidity;BMP_temperature;BMP_pressure;BME280_temperature;BME280_humidity;BME280_pressure;Samples;Min_cycle;Max_cycle;Signal;HPM_P1;HPM_P2
2021/09/16 00:01:49;;;;;;;4.05;1.70;;;;;;;14.38;91.32;101643.31;5032530;28;20392;-66
2021/09/16 00:04:18;;;;;;;3.15;1.55;;;;;;;14.35;90.66;101646.09;5038455;28;20625;-66
2021/09/16 00:06:46;;;;;;;2.92;1.63;;;;;;;14.31;90.69;101649.84;5037540;28;20114;-66
2021/09/16 00:09:14;;;;;;;3.13;1.63;;;;;;;14.24;90.83;101648.31;5034686;28;20572;-66
2021/09/16 00:11:41;;;;;;;5.95;2.10;;;;;;;14.22;91.09;101655.50;5036997;28;20186;-68
2021/09/16 00:14:09;;;;;;;3.97;1.75;;;;;;;14.18;90.84;101647.59;5034720;28;20094;-68
2021/09/16 00:16:37;;;;;;;5.30;1.67;;;;;;;14.20;90.24;101634.97;5034238;28;20076;-68
2021/09/16 00:19:05;;;;;;;3.72;1.67;;;;;;;14.22;90.77;101642.09;5034635;28;20465;-68
2021/09/16 00:21:34;;;;;;;4.28;1.98;;;;;;;14.20;90.82;101643.03;5037221;28;20146;-68
2021/09/16 00:24:02;;;;;;;4.15;1.50;;;;;;;14.21;90.29;101641.22;5027690;28;20053;-68
2021/09/16 00:26:30;;;;;;;8.45;1.80;;;;;;;14.19;90.21;101643.09;5035557;28;20536;-69
2021/09/16 00:28:58;;;;;;;3.72;1.60;;;;;;;14.16;91.01;101645.88;5036555;28;20053;-70
2021/09/16 00:31:25;;;;;;;4.80;1.60;;;;;;;14.11;90.77;101646.00;5034546;28;20060;-68
2021/09/16 00:33:54;;;;;;;3.15;1.40;;;;;;;14.11;90.69;101642.47;5037838;28;20140;-68
2021/09/16 00:36:22;;;;;;;7.13;2.13;;;;;;;14.08;90.61;101648.81;5037002;28;20083;-66
2021/09/16 00:38:51;;;;;;;8.05;1.90;;;;;;;14.04;90.88;101646.28;5035724;28;20049;-68
2021/09/16 00:41:19;;;;;;;7.03;2.00;;;;;;;14.08;90.62;101653.28;5034613;28;20049;-68
2021/09/16 00:43:47;;;;;;;5.07;1.70;;;;;;;14.08;90.49;101655.97;5030898;28;20059;-68
2021/09/16 00:46:15;;;;;;;4.10;1.48;;;;;;;14.07;90.86;101651.56;5036400;28;20327;-69
2021/09/16 00:48:42;;;;;;;6.20;1.80;;;;;;;14.07;90.36;101657.78;5036885;28;20129;-68
2021/09/16 00:51:10;;;;;;;2.70;1.40;;;;;;;14.05;90.17;101648.06;5034647;28;20140;-68
2021/09/16 00:53:40;;;;;;;5.20;1.70;;;;;;;14.01;90.44;101653.53;5036822;28;20076;-68
2021/09/16 00:56:09;;;;;;;5.38;1.60;;;;;;;14.00;89.56;101650.88;5035949;28;20045;-66
2021/09/16 00:58:39;;;;;;;5.55;1.77;;;;;;;14.02;89.86;101655.25;5036510;28;20072;-66
2021/09/16 01:01:08;;;;;;;5.35;1.50;;;;;;;13.96;89.89;101655.47;5033127;28;20060;-66
2021/09/16 01:03:36;;;;;;;5.80;1.75;;;;;;;14.01;89.50;101658.00;5035516;28;20049;-66
2021/09/16 01:06:06;;;;;;;2.83;1.65;;;;;;;14.10;88.80;101651.47;5035359;28;20123;-66
2021/09/16 01:08:34;;;;;;;2.95;1.40;;;;;;;14.13;88.40;101654.91;5036643;28;20556;-66
2021/09/16 01:11:02;;;;;;;5.28;1.63;;;;;;;14.15;87.82;101649.50;5037778;28;20076;-65
2021/09/16 01:13:31;;;;;;;2.63;1.50;;;;;;;14.17;87.68;101647.63;5040103;28;20060;-66
2021/09/16 01:15:59;;;;;;;4.35;1.58;;;;;;;14.14;88.01;101655.78;5037280;28;20048;-66
2021/09/16 01:18:27;;;;;;;6.15;1.80;;;;;;;14.16;87.82;101645.88;5040504;28;20052;-66
2021/09/16 01:20:55;;;;;;;2.55;1.48;;;;;;;14.10;87.85;101651.47;5038768;28;20116;-66
2021/09/16 01:23:24;;;;;;;3.05;1.38;;;;;;;14.05;88.62;101651.59;5038178;28;20135;-66
2021/09/16 01:25:53;;;;;;;5.45;1.48;;;;;;;13.99;88.92;101650.00;5039197;28;20068;-66
2021/09/16 01:28:20;;;;;;;3.58;1.60;;;;;;;13.95;89.09;101648.34;5038999;28;20099;-66
2021/09/16 01:30:49;;;;;;;3.95;1.40;;;;;;;13.92;88.93;101647.56;5037923;28;20056;-66
2021/09/16 01:33:18;;;;;;;4.05;1.70;;;;;;;13.91;89.20;101653.84;5037537;28;20444;-66
2021/09/16 01:35:45;;;;;;;12.48;2.90;;;;;;;13.85;89.30;101652.28;5037197;28;20059;-66
2021/09/16 01:38:13;;;;;;;6.32;1.45;;;;;;;13.82;89.29;101650.56;5040324;28;20057;-66
2021/09/16 01:40:46;;;;;;;4.15;2.35;;;;;;;13.82;89.56;101647.00;5036864;28;20052;-66
2021/09/16 01:43:16;;;;;;;4.75;1.63;;;;;;;13.82;89.88;101642.53;5038422;28;20229;-66
2021/09/16 01:45:44;;;;;;;5.13;1.92;;;;;;;13.88;89.46;101646.81;5040737;28;20126;-68
2021/09/16 01:48:11;;;;;;;4.82;1.50;;;;;;;13.84;89.80;101655.88;5036896;28;20152;-65
2021/09/16 01:50:39;;;;;;;6.22;2.03;;;;;;;13.87;89.81;101655.78;5042085;28;20077;-68
2021/09/16 01:53:07;;;;;;;3.88;1.45;;;;;;;13.89;89.99;101656.59;5035185;28;20416;-68
2021/09/16 01:55:35;;;;;;;4.53;1.70;;;;;;;13.88;89.97;101654.84;5040915;28;20088;-66
2021/09/16 01:58:04;;;;;;;3.40;1.42;;;;;;;13.89;90.09;101653.03;5036129;28;20438;-69
2021/09/16 02:00:32;;;;;;;5.85;1.67;;;;;;;13.90;90.00;101653.00;5039378;28;20072;-66
2021/09/16 02:02:59;;;;;;;4.05;1.80;;;;;;;13.89;90.24;101653.91;5040050;28;20061;-66
2021/09/16 02:05:27;;;;;;;3.38;1.38;;;;;;;13.87;90.46;101658.44;5037099;28;20049;-66
2021/09/16 02:07:55;;;;;;;4.28;2.15;;;;;;;13.96;90.58;101660.84;5038678;28;20500;-66
2021/09/16 02:10:23;;;;;;;4.72;1.80;;;;;;;14.06;90.22;101665.91;5036997;28;20084;-66
2021/09/16 02:12:50;;;;;;;6.47;1.80;;;;;;;14.07;90.31;101679.25;5039113;28;20093;-66
2021/09/16 02:15:20;;;;;;;5.18;1.60;;;;;;;14.09;91.00;101660.44;5041961;28;20060;-65
2021/09/16 02:17:48;;;;;;;5.03;1.90;;;;;;;14.10;91.47;101665.75;5033069;28;20122;-67
2021/09/16 02:20:15;;;;;;;7.35;1.77;;;;;;;14.12;92.48;101671.94;5038031;28;20110;-69
2021/09/16 02:22:43;;;;;;;7.53;2.08;;;;;;;14.11;94.29;101667.47;5038609;28;20472;-69
2021/09/16 02:25:11;;;;;;;6.35;1.80;;;;;;;14.11;94.52;101670.16;5038265;28;20061;-69
2021/09/16 02:27:39;;;;;;;4.60;2.15;;;;;;;14.11;94.83;101671.97;5036621;28;20045;-69
2021/09/16 02:30:07;;;;;;;5.88;2.03;;;;;;;14.07;94.33;101671.22;5040156;28;20527;-69
2021/09/16 02:32:37;;;;;;;2.70;1.67;;;;;;;14.08;93.83;101670.28;5039046;28;20076;-69
2021/09/16 02:35:06;;;;;;;7.75;2.00;;;;;;;14.10;94.04;101664.88;5036535;28;20114;-67
2021/09/16 02:37:34;;;;;;;4.10;1.50;;;;;;;14.03;94.56;101664.22;5038523;28;20550;-67
2021/09/16 02:40:02;;;;;;;4.75;1.42;;;;;;;13.99;94.00;101665.22;5037010;28;20429;-67
2021/09/16 02:42:30;;;;;;;4.95;1.58;;;;;;;13.92;94.24;101663.69;5036182;28;20461;-67
2021/09/16 02:44:58;;;;;;;5.72;1.60;;;;;;;13.85;94.37;101663.00;5041408;28;20063;-65
2021/09/16 02:47:25;;;;;;;4.97;1.60;;;;;;;13.77;94.12;101665.94;5037009;28;20148;-65
2021/09/16 02:49:54;;;;;;;3.90;1.40;;;;;;;13.73;95.01;101666.94;5040886;28;20049;-69
2021/09/16 02:52:23;;;;;;;4.85;1.90;;;;;;;13.66;94.89;101669.91;5033495;28;20141;-70
2021/09/16 02:54:51;;;;;;;5.85;2.70;;;;;;;13.60;94.96;101669.16;5039384;28;20049;-69
2021/09/16 02:57:18;;;;;;;5.38;1.80;;;;;;;13.53;95.06;101667.56;5040047;28;20375;-69
2021/09/16 02:59:46;;;;;;;9.18;3.05;;;;;;;13.47;94.92;101667.78;5034515;28;20053;-67
2021/09/16 03:02:14;;;;;;;8.65;3.17;;;;;;;13.40;95.49;101668.88;5038852;28;20053;-66
2021/09/16 03:04:42;;;;;;;5.03;1.75;;;;;;;13.33;96.23;101670.91;5034564;28;20053;-67
2021/09/16 03:07:11;;;;;;;7.63;2.90;;;;;;;13.26;95.93;101669.25;5038380;28;20061;-67
2021/09/16 03:09:38;;;;;;;5.45;1.75;;;;;;;13.20;96.70;101681.06;5039895;28;20049;-67
2021/09/16 03:12:07;;;;;;;5.88;1.92;;;;;;;13.18;96.46;101679.38;5034892;28;20556;-67
2021/09/16 03:14:35;;;;;;;4.38;1.60;;;;;;;13.13;96.40;101670.56;5038336;28;20049;-67
2021/09/16 03:17:03;;;;;;;2.33;1.63;;;;;;;13.16;96.26;101679.41;5033666;28;20188;-67
2021/09/16 03:19:30;;;;;;;7.07;1.98;;;;;;;13.14;95.46;101677.69;5037660;28;20064;-67
2021/09/16 03:21:58;;;;;;;3.47;1.58;;;;;;;13.11;95.29;101689.38;5035179;28;20053;-66
2021/09/16 03:24:27;;;;;;;7.97;2.53;;;;;;;13.13;94.60;101683.94;5037487;28;20052;-66
2021/09/16 03:26:55;;;;;;;4.55;1.63;;;;;;;13.14;94.19;101691.06;5036162;28;20053;-67
2021/09/16 03:29:23;;;;;;;3.25;1.63;;;;;;;13.15;93.78;101690.16;5035141;28;20127;-67
2021/09/16 03:31:52;;;;;;;3.03;1.58;;;;;;;13.12;93.29;101692.94;5036309;28;20846;-67
2021/09/16 03:34:20;;;;;;;4.93;1.50;;;;;;;13.15;93.01;101692.84;5035477;28;20302;-67
2021/09/16 03:36:48;;;;;;;6.72;1.67;;;;;;;13.15;93.08;101690.16;5037949;28;20110;-67
2021/09/16 03:39:15;;;;;;;5.10;1.65;;;;;;;13.11;92.83;101685.81;5035132;28;20069;-67
2021/09/16 03:41:44;;;;;;;3.40;1.48;;;;;;;13.09;93.26;101688.53;5036966;28;20631;-67
2021/09/16 03:44:12;;;;;;;8.27;1.88;;;;;;;13.05;93.14;101694.91;5036370;28;20614;-67
2021/09/16 03:46:40;;;;;;;4.70;1.58;;;;;;;13.04;93.43;101694.03;5035200;28;20053;-67
2021/09/16 03:49:08;;;;;;;4.68;1.50;;;;;;;13.05;93.44;101690.41;5034742;28;20129;-69
2021/09/16 03:51:36;;;;;;;1.88;1.70;;;;;;;13.03;93.52;101694.06;5033119;28;20045;-69
2021/09/16 03:54:04;;;;;;;5.30;1.70;;;;;;;13.00;93.68;101692.34;5034551;28;20531;-67
2021/09/16 03:56:31;;;;;;;3.25;1.63;;;;;;;13.01;93.87;101691.44;5035174;28;20053;-66
2021/09/16 03:59:00;;;;;;;3.47;1.70;;;;;;;12.95;93.88;101690.72;5034491;28;20049;-67
2021/09/16 04:01:28;;;;;;;5.55;1.75;;;;;;;12.93;94.12;101696.13;5037405;28;20144;-66
2021/09/16 04:03:56;;;;;;;3.10;1.77;;;;;;;12.96;93.81;101697.84;5035831;28;20314;-66
2021/09/16 04:06:24;;;;;;;2.95;1.90;;;;;;;12.90;94.24;101698.88;5037578;28;20049;-66
2021/09/16 04:08:52;;;;;;;3.60;1.58;;;;;;;12.85;94.28;101690.09;5034201;28;20045;-66
2021/09/16 04:11:19;;;;;;;4.38;1.65;;;;;;;12.81;94.46;101691.13;5035334;28;20548;-66
2021/09/16 04:13:47;;;;;;;4.47;1.45;;;;;;;12.74;94.72;101698.44;5036889;28;20896;-66
2021/09/16 04:16:16;;;;;;;3.70;1.75;;;;;;;12.75;95.26;101697.50;5037565;28;20075;-66
2021/09/16 04:18:44;;;;;;;4.35;1.88;;;;;;;12.76;95.40;101698.41;5034557;28;20053;-67
2021/09/16 04:21:12;;;;;;;4.85;1.83;;;;;;;12.82;95.03;101703.56;5038637;28;20477;-66
2021/09/16 04:23:40;;;;;;;7.72;1.77;;;;;;;12.79;95.16;101709.03;5034708;28;20045;-67
2021/09/16 04:26:07;;;;;;;5.28;1.55;;;;;;;12.79;95.23;101712.59;5035014;28;20148;-69
2021/09/16 04:28:35;;;;;;;6.28;1.85;;;;;;;12.84;95.52;101712.47;5035568;28;20050;-68
2021/09/16 04:31:03;;;;;;;4.10;1.70;;;;;;;12.85;96.22;101719.56;5037807;28;20053;-68
2021/09/16 04:33:33;;;;;;;4.32;2.00;;;;;;;12.89;95.87;101716.78;5030051;28;20118;-69
2021/09/16 04:36:00;;;;;;;9.02;3.70;;;;;;;13.00;95.81;101720.94;5035843;28;20061;-69
2021/09/16 04:38:28;;;;;;;6.40;2.60;;;;;;;13.09;94.99;101715.31;5036953;28;20147;-69
2021/09/16 04:40:57;;;;;;;7.55;2.30;;;;;;;13.13;94.88;101713.41;5036666;28;20057;-70
2021/09/16 04:43:25;;;;;;;8.20;2.80;;;;;;;13.14;94.87;101704.47;5033149;28;20056;-71
2021/09/16 04:45:53;;;;;;;8.40;2.97;;;;;;;13.16;95.79;101713.34;5038316;28;20061;-69
2021/09/16 04:48:21;;;;;;;6.20;2.85;;;;;;;13.16;95.22;101710.66;5041964;28;20041;-70
2021/09/16 04:50:50;;;;;;;7.20;2.40;;;;;;;13.19;95.04;101710.56;5041199;28;20049;-69
2021/09/16 04:53:18;;;;;;;4.07;2.28;;;;;;;13.15;95.04;101712.47;5037496;28;20106;-69
2021/09/16 04:55:45;;;;;;;4.82;2.17;;;;;;;13.10;95.09;101711.72;5037876;28;20071;-69
2021/09/16 04:58:13;;;;;;;3.75;1.77;;;;;;;13.04;95.54;101710.13;5037384;28;20144;-69
2021/09/16 05:00:41;;;;;;;3.72;1.80;;;;;;;12.97;96.02;101704.97;5038823;28;20049;-69
2021/09/16 05:03:09;;;;;;;4.45;1.88;;;;;;;12.91;95.88;101707.84;5038159;28;20049;-69
2021/09/16 05:05:36;;;;;;;9.50;2.10;;;;;;;12.87;96.92;101715.03;5040759;28;20107;-69
2021/09/16 05:08:06;;;;;;;6.40;2.17;;;;;;;12.82;96.52;101715.19;5039422;28;20077;-69
2021/09/16 05:10:34;;;;;;;4.88;2.00;;;;;;;12.81;97.05;101709.88;5039715;28;20052;-69
2021/09/16 05:13:02;;;;;;;6.55;1.90;;;;;;;12.81;97.01;101717.91;5037810;28;20103;-69
2021/09/16 05:15:30;;;;;;;4.75;2.20;;;;;;;12.82;97.99;101720.56;5038136;28;20064;-70
2021/09/16 05:17:57;;;;;;;5.88;2.40;;;;;;;12.84;97.91;101710.66;5040102;28;20144;-69
2021/09/16 05:20:25;;;;;;;12.20;5.88;;;;;;;12.87;98.07;101718.63;5039186;28;20054;-69
2021/09/16 05:22:53;;;;;;;6.57;2.67;;;;;;;12.89;97.95;101715.91;5038390;28;20056;-69
2021/09/16 05:25:22;;;;;;;6.05;2.15;;;;;;;12.94;97.67;101723.78;5037323;28;20098;-69
2021/09/16 05:27:50;;;;;;;6.22;2.40;;;;;;;12.98;98.27;101721.00;5038286;28;20228;-69
2021/09/16 05:30:18;;;;;;;4.95;2.10;;;;;;;13.04;98.11;101712.78;5036678;28;20356;-69
2021/09/16 05:32:46;;;;;;;14.55;11.05;;;;;;;13.09;98.44;101726.03;5038786;28;20056;-69
2021/09/16 05:35:14;;;;;;;7.97;3.40;;;;;;;13.15;97.82;101727.69;5036506;28;20049;-69
2021/09/16 05:37:42;;;;;;;7.03;2.97;;;;;;;13.19;98.33;101730.22;5042858;28;20080;-68
2021/09/16 05:40:11;;;;;;;6.93;2.30;;;;;;;13.33;96.31;101737.91;5037095;28;20084;-68
2021/09/16 05:42:41;;;;;;;6.75;2.50;;;;;;;13.41;95.80;101734.97;5040305;28;20053;-68
2021/09/16 05:45:10;;;;;;;6.65;2.00;;;;;;;13.45;95.73;101747.38;5038608;28;20312;-68
2021/09/16 05:47:38;;;;;;;4.90;2.00;;;;;;;13.56;94.90;101739.00;5040272;28;20067;-68
2021/09/16 05:50:06;;;;;;;7.25;1.80;;;;;;;13.61;94.33;101745.13;5040246;28;20053;-68
2021/09/16 05:52:34;;;;;;;7.88;2.78;;;;;;;13.74;92.89;101735.78;5037966;28;20053;-68
2021/09/16 05:55:01;;;;;;;4.85;2.40;;;;;;;13.83;92.58;101735.47;5036568;28;20049;-68
2021/09/16 05:57:29;;;;;;;7.15;2.25;;;;;;;13.82;92.67;101739.09;5036814;28;20064;-68
2021/09/16 05:59:59;;;;;;;5.25;1.88;;;;;;;13.82;92.38;101747.16;5035869;28;20075;-68
2021/09/16 06:02:27;;;;;;;8.15;2.20;;;;;;;13.78;93.02;101749.97;5040369;28;20055;-69
2021/09/16 06:04:55;;;;;;;5.82;2.22;;;;;;;13.80;92.80;101753.47;5036700;28;20493;-68
2021/09/16 06:07:23;;;;;;;8.50;2.53;;;;;;;13.74;93.05;101754.53;5035296;28;20057;-68
2021/09/16 06:09:50;;;;;;;5.70;2.15;;;;;;;13.73;93.40;101757.28;5038270;28;20041;-67
2021/09/16 06:12:18;;;;;;;8.20;2.22;;;;;;;13.73;93.59;101770.69;5036190;28;20066;-67
2021/09/16 06:14:47;;;;;;;6.25;2.25;;;;;;;13.89;93.04;101761.22;5039717;28;20055;-67
2021/09/16 06:17:16;;;;;;;10.63;2.63;;;;;;;13.98;92.84;101771.69;5039975;28;20135;-69
2021/09/16 06:19:44;;;;;;;6.10;2.50;;;;;;;14.01;92.55;101773.38;5035450;28;20056;-68
2021/09/16 06:22:11;;;;;;;5.13;2.85;;;;;;;14.02;93.00;101772.47;5037606;28;20613;-68
2021/09/16 06:24:39;;;;;;;6.72;2.70;;;;;;;14.05;92.45;101772.38;5036807;28;20049;-67
2021/09/16 06:27:07;;;;;;;7.60;2.50;;;;;;;14.10;91.93;101773.09;5039601;28;20045;-68
2021/09/16 06:29:35;;;;;;;6.95;2.60;;;;;;;14.19;91.42;101766.56;5036274;28;20059;-68
2021/09/16 06:32:03;;;;;;;10.02;3.13;;;;;;;14.22;91.33;101769.13;5038274;28;20634;-68
2021/09/16 06:34:32;;;;;;;6.25;2.38;;;;;;;14.29;90.86;101775.19;5039581;28;20551;-68
2021/09/16 06:37:00;;;;;;;6.40;2.35;;;;;;;14.33;90.77;101780.38;5033280;28;20052;-68
2021/09/16 06:39:28;;;;;;;4.57;1.90;;;;;;;14.38;90.53;101778.44;5039148;28;20367;-65
2021/09/16 06:41:56;;;;;;;7.55;2.40;;;;;;;14.41;90.58;101779.28;5039211;28;20044;-65
2021/09/16 06:44:24;;;;;;;6.07;2.40;;;;;;;14.48;89.21;101778.13;5036507;28;20172;-66
2021/09/16 06:46:52;;;;;;;7.20;2.88;;;;;;;14.50;89.52;101781.66;5042252;28;20052;-64
2021/09/16 06:49:20;;;;;;;9.27;3.20;;;;;;;14.55;89.95;101779.69;5036129;28;20045;-67
2021/09/16 06:51:49;;;;;;;7.20;2.45;;;;;;;14.68;88.93;101788.25;5038179;28;20144;-66
2021/09/16 06:54:17;;;;;;;9.82;2.65;;;;;;;14.79;87.95;101788.72;5035887;28;20073;-67
2021/09/16 06:56:45;;;;;;;5.72;2.45;;;;;;;14.97;87.50;101791.72;5038040;28;21192;-67
2021/09/16 06:59:13;;;;;;;7.13;2.10;;;;;;;15.16;84.98;101786.56;5038812;28;20491;-67
2021/09/16 07:01:40;;;;;;;8.35;2.00;;;;;;;15.37;84.47;101791.13;5037380;28;20037;-67
2021/09/16 07:04:08;;;;;;;8.13;2.20;;;;;;;15.56;82.49;101791.34;5037889;28;20056;-65
2021/09/16 07:06:37;;;;;;;5.30;2.65;;;;;;;15.85;82.47;101794.75;5034895;28;20134;-65
2021/09/16 07:09:06;;;;;;;5.28;1.92;;;;;;;16.08;80.26;101787.59;5038392;28;20336;-66
2021/09/16 07:11:33;;;;;;;6.20;2.20;;;;;;;16.34;79.07;101781.13;5037411;28;20068;-68
2021/09/16 07:14:02;;;;;;;5.38;2.10;;;;;;;16.65;78.63;101785.22;5036997;28;20060;-68
2021/09/16 07:16:30;;;;;;;6.63;2.83;;;;;;;16.78;77.63;101790.03;5037102;28;20063;-69
2021/09/16 07:18:57;;;;;;;5.10;1.77;;;;;;;17.02;77.57;101783.69;5034965;28;20049;-69
2021/09/16 07:21:25;;;;;;;4.47;2.08;;;;;;;17.13;75.83;101787.66;5038060;28;20045;-69
2021/09/16 07:23:53;;;;;;;9.25;2.78;;;;;;;17.18;75.28;101788.31;5034787;28;20056;-68
2021/09/16 07:26:25;;;;;;;8.40;2.33;;;;;;;17.48;74.16;101792.38;5040008;28;20452;-68
2021/09/16 07:28:58;;;;;;;5.28;1.80;;;;;;;17.42;74.48;101798.94;5037697;28;20110;-69
2021/09/16 07:31:26;;;;;;;4.25;1.80;;;;;;;17.28;73.98;101799.59;5039024;28;20087;-69
2021/09/16 07:33:54;;;;;;;4.60;2.00;;;;;;;17.70;73.39;101792.28;5038620;28;20049;-68
2021/09/16 07:36:22;;;;;;;5.78;2.00;;;;;;;18.09;72.08;101786.81;5036026;28;20049;-68
2021/09/16 07:38:50;;;;;;;4.60;2.20;;;;;;;18.41;71.20;101794.28;5036556;28;20056;-66
2021/09/16 07:41:18;;;;;;;5.78;2.50;;;;;;;18.00;72.49;101797.22;5034994;28;20040;-65
2021/09/16 07:43:47;;;;;;;5.75;1.70;;;;;;;18.09;70.78;101796.75;5037589;28;20071;-65
2021/09/16 07:46:15;;;;;;;5.22;1.77;;;;;;;17.72;71.53;101801.16;5035374;28;20443;-65
2021/09/16 07:48:43;;;;;;;5.97;1.90;;;;;;;16.86;73.38;101805.91;5037827;28;20396;-65
2021/09/16 07:51:11;;;;;;;6.93;1.80;;;;;;;17.28;72.64;101804.06;5036758;28;20052;-65
2021/09/16 07:53:39;;;;;;;3.63;1.75;;;;;;;17.49;71.34;101803.13;5034077;28;20068;-64
2021/09/16 07:56:07;;;;;;;6.70;2.00;;;;;;;17.98;70.64;101809.88;5035640;28;20057;-65
2021/09/16 07:58:35;;;;;;;4.90;1.80;;;;;;;18.14;69.10;101804.63;5034874;28;20048;-65
2021/09/16 08:01:04;;;;;;;6.15;2.30;;;;;;;18.72;68.71;101803.56;5038337;28;20096;-65
2021/09/16 08:03:33;;;;;;;2.90;1.60;;;;;;;18.79;67.26;101808.56;5037403;28;20045;-68
2021/09/16 08:06:02;;;;;;;7.68;2.13;;;;;;;18.60;66.61;101805.91;5036975;28;20061;-66
2021/09/16 08:08:30;;;;;;;5.60;1.85;;;;;;;18.51;66.64;101808.19;5039493;28;20068;-68
2021/09/16 08:10:58;;;;;;;3.63;2.22;;;;;;;18.24;68.35;101812.22;5034902;28;20048;-68
2021/09/16 08:13:27;;;;;;;4.95;1.55;;;;;;;19.09;67.84;101813.38;5038545;28;20041;-65
2021/09/16 08:15:55;;;;;;;6.18;2.00;;;;;;;19.31;66.54;101815.81;5035722;28;20581;-66
2021/09/16 08:18:24;;;;;;;6.20;1.95;;;;;;;19.10;65.96;101820.50;5037900;28;20517;-69
2021/09/16 08:20:53;;;;;;;4.18;1.90;;;;;;;18.21;67.94;101817.75;5037694;28;20047;-66
2021/09/16 08:23:23;;;;;;;2.72;1.70;;;;;;;18.70;66.67;101827.97;5035239;28;20056;-66
2021/09/16 08:25:51;;;;;;;6.32;1.92;;;;;;;18.56;65.42;101825.97;5038606;28;20445;-66
2021/09/16 08:28:19;;;;;;;8.50;1.95;;;;;;;18.75;65.80;101831.31;5031658;28;20087;-66
2021/09/16 08:30:47;;;;;;;4.72;2.22;;;;;;;18.82;65.50;101818.34;5036219;28;20045;-68
2021/09/16 08:33:15;;;;;;;13.48;1.83;;;;;;;19.05;65.22;101822.59;5035128;28;20441;-66
2021/09/16 08:35:45;;;;;;;3.83;1.63;;;;;;;18.71;65.51;101821.63;5033473;28;20053;-68
2021/09/16 08:38:14;;;;;;;5.03;1.58;;;;;;;19.00;65.62;101827.34;5036132;28;20092;-69
2021/09/16 08:40:42;;;;;;;7.90;2.33;;;;;;;19.00;64.73;101832.75;5031838;28;20091;-66
2021/09/16 08:43:12;;;;;;;4.22;1.58;;;;;;;19.11;64.77;101833.09;5031115;28;20068;-69
2021/09/16 08:45:41;;;;;;;4.47;1.75;;;;;;;19.47;64.58;101836.63;5034494;28;20049;-69
2021/09/16 08:48:09;;;;;;;5.75;1.60;;;;;;;19.26;65.74;101841.34;5034044;28;20053;-66
2021/09/16 08:50:36;;;;;;;3.25;1.25;;;;;;;18.33;67.57;101842.44;5037129;28;20049;-68
2021/09/16 08:53:06;;;;;;;5.80;1.90;;;;;;;18.38;67.57;101854.75;5034025;28;20052;-66
2021/09/16 08:55:35;;;;;;;3.58;1.52;;;;;;;19.06;65.27;101851.38;5036732;28;20053;-69
2021/09/16 08:58:04;;;;;;;2.92;1.30;;;;;;;19.62;64.38;101854.75;5034462;28;20068;-67
2021/09/16 09:00:34;;;;;;;4.32;1.67;;;;;;;19.00;65.36;101846.28;5037114;28;20052;-69
2021/09/16 09:03:02;;;;;;;4.68;1.60;;;;;;;18.64;67.42;101847.19;5036492;28;20060;-69
2021/09/16 09:05:31;;;;;;;3.25;1.90;;;;;;;18.87;66.66;101846.06;5037759;28;20053;-67
2021/09/16 09:08:02;;;;;;;5.95;1.98;;;;;;;19.27;64.94;101853.94;5039401;28;20504;-66
2021/09/16 09:10:43;;;;;;;6.32;1.77;;;;;;;19.75;64.31;101853.16;5035932;28;20058;-66
2021/09/16 09:13:13;;;;;;;6.07;2.10;;;;;;;19.48;65.28;101858.22;5033548;28;21152;-67
2021/09/16 09:15:42;;;;;;;6.07;1.67;;;;;;;20.06;64.64;101848.75;5034293;28;20114;-67
2021/09/16 09:18:13;;;;;;;5.18;1.92;;;;;;;19.53;64.33;101855.22;5036618;28;20195;-67
2021/09/16 09:20:59;;;;;;;4.70;1.50;;;;;;;19.96;65.25;101848.38;5035026;28;20460;-70
2021/09/16 09:23:30;;;;;;;4.82;2.33;;;;;;;20.00;63.48;101849.09;5034317;28;20519;-70
2021/09/16 09:26:00;;;;;;;4.90;1.92;;;;;;;19.56;63.86;101847.84;5036991;28;20065;-70
2021/09/16 09:28:33;;;;;;;3.55;1.90;;;;;;;19.91;63.51;101860.44;5036804;28;20592;-67
2021/09/16 09:31:15;;;;;;;4.07;1.80;;;;;;;19.49;64.00;101864.50;5038707;28;20071;-70
2021/09/16 09:33:44;;;;;;;7.50;1.90;;;;;;;19.40;64.37;101865.84;5037560;28;20053;-69
2021/09/16 09:36:14;;;;;;;6.03;2.03;;;;;;;19.45;63.97;101858.38;5040500;28;20145;-70
2021/09/16 09:38:54;;;;;;;3.35;1.67;;;;;;;20.01;62.97;101853.56;5036180;28;20050;-69
2021/09/16 09:41:26;;;;;;;3.60;1.70;;;;;;;19.80;62.32;101852.88;5038960;28;20045;-70
2021/09/16 09:44:11;;;;;;;4.05;1.80;;;;;;;19.75;63.14;101852.28;5035336;28;20494;-69
2021/09/16 09:46:41;;;;;;;4.63;1.88;;;;;;;19.96;62.12;101853.81;5035298;28;20126;-67
2021/09/16 09:49:10;;;;;;;6.20;1.70;;;;;;;20.23;60.38;101863.19;5039771;28;20057;-70
2021/09/16 09:51:40;;;;;;;7.95;2.20;;;;;;;20.11;60.68;101862.91;5035169;28;20055;-69
2021/09/16 09:54:17;;;;;;;5.63;1.98;;;;;;;20.05;61.34;101862.38;5036899;28;20049;-69
2021/09/16 09:57:04;;;;;;;4.10;1.80;;;;;;;20.45;61.57;101863.72;5037164;28;20052;-70
2021/09/16 09:59:51;;;;;;;8.18;2.47;;;;;;;20.40;61.08;101860.38;5037029;28;20092;-67
2021/09/16 10:02:20;;;;;;;4.00;1.70;;;;;;;20.88;59.09;101863.06;5040518;28;20150;-69
2021/09/16 10:04:49;;;;;;;3.50;1.70;;;;;;;21.01;59.74;101861.38;5036426;28;20090;-69
2021/09/16 10:07:37;;;;;;;5.85;1.80;;;;;;;21.04;58.23;101853.06;5038072;28;20049;-67
2021/09/16 10:10:09;;;;;;;4.65;1.50;;;;;;;21.25;59.25;101853.56;5038411;28;20057;-67
2021/09/16 10:12:39;;;;;;;4.18;1.77;;;;;;;20.96;58.05;101852.63;5040397;28;20078;-67
2021/09/16 10:15:10;;;;;;;6.10;2.20;;;;;;;21.31;59.13;101849.59;5039787;28;20052;-67
2021/09/16 10:17:38;;;;;;;4.10;1.90;;;;;;;21.81;56.17;101850.16;5037838;28;20053;-66
2021/09/16 10:20:08;;;;;;;9.73;2.97;;;;;;;21.80;55.64;101848.41;5038753;28;20311;-69
2021/09/16 10:22:38;;;;;;;4.97;2.30;;;;;;;21.83;54.80;101850.94;5036570;28;20126;-69
2021/09/16 10:25:08;;;;;;;2.08;1.80;;;;;;;20.61;57.46;101850.13;5039155;28;20552;-70
2021/09/16 10:27:40;;;;;;;5.75;2.05;;;;;;;20.68;58.03;101853.38;5035773;28;20053;-69
2021/09/16 10:30:44;;;;;;;4.57;2.10;;;;;;;20.18;59.11;101852.59;5041832;28;20146;-69
2021/09/16 10:33:28;;;;;;;5.10;2.28;;;;;;;20.30;59.64;101859.16;5039509;28;20417;-66
2021/09/16 10:36:07;;;;;;;4.93;1.88;;;;;;;20.82;59.69;101853.47;5039166;28;20053;-67
2021/09/16 10:38:39;;;;;;;4.95;2.08;;;;;;;21.14;56.85;101850.63;5037623;28;20090;-66
2021/09/16 10:41:26;;;;;;;4.93;1.80;;;;;;;21.29;57.91;101859.69;5039694;28;20060;-66
2021/09/16 10:44:22;;;;;;;4.65;1.95;;;;;;;21.11;57.65;101856.25;5039735;28;20064;-66
2021/09/16 10:46:52;;;;;;;5.30;2.25;;;;;;;21.26;56.12;101860.72;5036607;28;20084;-68
2021/09/16 10:49:31;;;;;;;3.13;1.88;;;;;;;21.78;56.99;101866.66;5038463;28;20405;-68
2021/09/16 10:52:02;;;;;;;5.88;3.30;;;;;;;22.14;55.29;101868.84;5040174;28;20076;-65
2021/09/16 10:54:41;;;;;;;6.10;3.33;;;;;;;22.04;54.35;101864.13;5039605;28;20052;-68
2021/09/16 10:57:11;;;;;;;7.28;2.70;;;;;;;21.30;55.48;101872.31;5033434;28;20072;-68
2021/09/16 11:00:09;;;;;;;7.28;2.45;;;;;;;21.01;56.46;101860.47;5039885;28;20796;-68
2021/09/16 11:03:08;;;;;;;6.18;2.50;;;;;;;21.40;56.51;101862.63;5044569;28;20049;-68
2021/09/16 11:05:43;;;;;;;5.43;2.42;;;;;;;21.44;55.81;101860.59;5037755;28;20551;-70
2021/09/16 11:08:11;;;;;;;5.00;2.50;;;;;;;21.68;56.08;101860.06;5036922;28;20053;-68
2021/09/16 11:10:56;;;;;;;6.25;2.10;;;;;;;22.02;55.99;101856.94;5035891;28;20079;-69
2021/09/16 11:13:57;;;;;;;8.68;2.50;;;;;;;21.29;56.85;101862.41;5036511;28;20057;-68
2021/09/16 11:16:27;;;;;;;7.95;2.53;;;;;;;22.19;55.89;101855.84;5038896;28;20139;-68
2021/09/16 11:19:04;;;;;;;6.70;3.03;;;;;;;21.39;57.33;101860.00;5037487;28;20080;-68
2021/09/16 11:21:33;;;;;;;5.93;3.08;;;;;;;20.58;59.26;101858.44;5036421;28;20041;-68
2021/09/16 11:24:06;;;;;;;6.53;2.58;;;;;;;20.90;59.23;101851.13;5033783;28;20354;-68
2021/09/16 11:26:34;;;;;;;7.90;2.60;;;;;;;21.59;58.29;101856.97;5036094;28;20084;-70
2021/09/16 11:29:08;;;;;;;8.70;3.40;;;;;;;21.51;57.32;101845.69;5038760;28;20303;-68
2021/09/16 11:31:38;;;;;;;7.20;2.97;;;;;;;21.52;57.07;101854.69;5037100;28;20052;-65
2021/09/16 11:34:11;;;;;;;7.18;3.17;;;;;;;21.29;58.27;101861.53;5036288;28;20052;-66
2021/09/16 11:37:03;;;;;;;8.27;4.00;;;;;;;21.13;60.29;101858.88;5036658;28;20983;-66